createdAt,value
2018-07-17T00:01:45.254Z,93.48
2018-07-17T00:04:14.314Z,92.56
2018-07-17T00:06:43.402Z,92.51
2018-07-17T00:09:13.230Z,93.07
2018-07-17T00:11:42.306Z,93.83
2018-07-17T00:14:11.387Z,95.12
2018-07-17T00:16:40.469Z,96.29
2018-07-17T00:19:09.839Z,95.75
2018-07-17T00:21:39.030Z,95.31
2018-07-17T00:24:09.782Z,95.36
2018-07-17T00:26:39.075Z,95.49
2018-07-17T00:29:09.786Z,96.24
2018-07-17T00:31:38.883Z,96.38
2018-07-17T00:34:07.992Z,95.90
2018-07-17T00:36:37.080Z,95.36
2018-07-17T00:39:06.918Z,95.82
2018-07-17T00:41:36.019Z,96.13
2018-07-17T00:44:05.038Z,95.68
2018-07-17T00:46:34.109Z,96.62
2018-07-17T00:49:03.225Z,96.68
2018-07-17T00:51:32.287Z,96.22
2018-07-17T00:54:01.507Z,97.28
2018-07-17T00:56:31.274Z,96.79
2018-07-17T00:59:01.188Z,96.98
2018-07-17T01:01:40.380Z,97.42
2018-07-17T01:04:14.598Z,96.71
2018-07-17T01:06:49.031Z,96.50
2018-07-17T01:09:23.349Z,96.91
2018-07-17T01:11:57.653Z,97.93
2018-07-17T01:15:33.734Z,98.54
2018-07-17T01:18:02.550Z,98.43
2018-07-17T01:20:31.695Z,99.83
2018-07-17T01:23:00.899Z,99.49
2018-07-17T01:25:30.007Z,100.00
2018-07-17T01:27:59.431Z,100.00
2018-07-17T01:30:28.536Z,100.00
2018-07-17T01:32:57.662Z,100.00
2018-07-17T01:35:26.785Z,100.00
2018-07-17T01:37:55.882Z,100.00
2018-07-17T01:40:24.955Z,100.00
2018-07-17T01:42:54.623Z,100.00
2018-07-17T01:45:24.006Z,100.00
2018-07-17T01:47:53.083Z,100.00
2018-07-17T01:50:22.253Z,100.00
2018-07-17T01:52:51.350Z,100.00
2018-07-17T01:55:20.782Z,100.00
2018-07-17T01:57:50.317Z,100.00
2018-07-17T02:00:20.167Z,100.00
2018-07-17T02:02:49.574Z,100.00
2018-07-17T02:05:18.818Z,100.00
2018-07-17T02:07:48.062Z,100.00
2018-07-17T02:10:16.870Z,100.00
2018-07-17T02:12:46.047Z,100.00
2018-07-17T02:15:15.087Z,100.00
2018-07-17T02:17:44.204Z,100.00
2018-07-17T02:20:13.318Z,99.96
2018-07-17T02:22:42.802Z,99.96
2018-07-17T02:25:12.850Z,100.00
2018-07-17T02:27:41.947Z,100.00
2018-07-17T02:30:11.031Z,100.00
2018-07-17T02:32:40.187Z,100.00
2018-07-17T02:35:09.363Z,100.00
2018-07-17T02:37:38.555Z,100.00
2018-07-17T02:40:08.199Z,100.00
2018-07-17T02:42:37.340Z,100.00
2018-07-17T02:45:06.699Z,100.00
2018-07-17T02:47:35.818Z,100.00
2018-07-17T02:50:04.970Z,100.00
2018-07-17T02:52:34.096Z,100.00
2018-07-17T02:55:03.235Z,100.00
2018-07-17T02:57:32.356Z,100.00
2018-07-17T03:00:01.228Z,100.00
2018-07-17T03:02:30.348Z,99.73
2018-07-17T03:04:59.479Z,100.00
2018-07-17T03:07:29.336Z,100.00
2018-07-17T03:09:58.475Z,100.00
2018-07-17T03:12:27.566Z,99.86
2018-07-17T03:14:56.671Z,99.70
2018-07-17T03:17:25.799Z,99.14
2018-07-17T03:19:54.959Z,99.59
2018-07-17T03:22:24.086Z,100.00
2018-07-17T03:24:53.191Z,100.00
2018-07-17T03:27:22.284Z,100.00
2018-07-17T03:29:51.766Z,100.00
2018-07-17T03:32:20.846Z,100.00
2018-07-17T03:34:49.930Z,100.00
2018-07-17T03:37:19.058Z,100.00
2018-07-17T03:39:48.151Z,100.00
2018-07-17T03:42:17.239Z,100.00
2018-07-17T03:44:47.143Z,100.00
2018-07-17T03:47:16.226Z,100.00
2018-07-17T03:49:45.314Z,100.00
2018-07-17T03:52:14.452Z,100.00
2018-07-17T03:54:43.590Z,100.00
2018-07-17T03:57:12.702Z,100.00
2018-07-17T03:59:41.975Z,100.00
2018-07-17T04:02:12.962Z,100.00
2018-07-17T04:04:42.247Z,100.00
2018-07-17T04:07:12.154Z,100.00
2018-07-17T04:09:41.267Z,100.00
2018-07-17T04:12:10.359Z,100.00
2018-07-17T04:14:39.462Z,100.00
2018-07-17T04:17:08.610Z,100.00
2018-07-17T04:19:37.783Z,100.00
2018-07-17T04:22:07.111Z,99.28
2018-07-17T04:24:36.227Z,97.56
2018-07-17T04:27:05.891Z,95.42
2018-07-17T04:29:35.006Z,94.29
2018-07-17T04:32:04.927Z,92.97
2018-07-17T04:34:35.007Z,90.32
2018-07-17T04:37:04.723Z,87.70
2018-07-17T04:39:33.863Z,85.56
2018-07-17T04:42:02.967Z,83.43
2018-07-17T04:44:32.886Z,84.05
2018-07-17T04:47:02.042Z,82.42
2018-07-17T04:49:31.127Z,81.27
2018-07-17T04:52:00.898Z,77.33
2018-07-17T04:54:29.998Z,73.44
2018-07-17T04:56:59.178Z,69.74
2018-07-17T04:59:29.366Z,66.61
2018-07-17T05:01:58.697Z,67.08
2018-07-17T05:04:27.822Z,63.86
2018-07-17T05:06:57.147Z,65.21
2018-07-17T05:09:26.835Z,65.12
2018-07-17T05:11:56.183Z,63.47
2018-07-17T05:14:25.546Z,63.76
2018-07-17T05:16:54.786Z,62.65
2018-07-17T05:19:23.980Z,60.65
2018-07-17T05:21:53.063Z,59.71
2018-07-17T05:24:22.154Z,58.42
2018-07-17T05:26:51.275Z,60.55
2018-07-17T05:29:21.526Z,60.33
2018-07-17T05:31:50.607Z,59.79
2018-07-17T05:34:23.138Z,60.02
2018-07-17T05:36:54.022Z,58.50
2018-07-17T05:39:23.194Z,57.96
2018-07-17T05:41:52.662Z,57.13
2018-07-17T05:44:21.774Z,55.86
2018-07-17T05:46:51.680Z,54.89
2018-07-17T05:49:21.722Z,52.90
2018-07-17T05:51:50.407Z,51.79
2018-07-17T05:54:19.695Z,52.31
2018-07-17T05:56:48.375Z,53.06
2018-07-17T05:59:17.495Z,51.46
2018-07-17T06:01:46.734Z,52.10
2018-07-17T06:04:16.110Z,48.50
2018-07-17T06:06:45.506Z,46.31
2018-07-17T06:09:15.128Z,48.56
2018-07-17T06:11:44.204Z,51.99
2018-07-17T06:14:13.342Z,51.17
2018-07-17T06:16:42.446Z,49.83
2018-07-17T06:19:11.514Z,51.61
2018-07-17T06:21:40.635Z,49.41
2018-07-17T06:24:09.730Z,48.37
2018-07-17T06:26:38.850Z,47.04
2018-07-17T06:29:07.546Z,45.13
2018-07-17T06:31:36.978Z,45.21
2018-07-17T06:34:06.358Z,50.63
2018-07-17T06:36:35.434Z,47.15
2018-07-17T06:39:06.718Z,43.60
2018-07-17T06:41:35.802Z,41.62
2018-07-17T06:44:05.384Z,42.54
2018-07-17T06:46:34.631Z,40.90
2018-07-17T06:49:03.746Z,41.34
2018-07-17T06:51:32.867Z,38.04
2018-07-17T06:54:01.990Z,37.50
2018-07-17T06:56:31.111Z,35.67
2018-07-17T06:59:00.194Z,36.44
2018-07-17T07:01:29.179Z,35.65
2018-07-17T07:03:58.292Z,36.30
2018-07-17T07:06:27.842Z,36.13
2018-07-17T07:08:57.366Z,33.93
2018-07-17T07:11:26.459Z,33.13
2018-07-17T07:13:55.550Z,31.16
2018-07-17T07:16:24.688Z,30.40
2018-07-17T07:18:53.791Z,30.51
2018-07-17T07:21:23.092Z,29.28
2018-07-17T07:23:52.216Z,29.47
2018-07-17T07:26:20.941Z,29.72
2018-07-17T07:28:50.031Z,30.74
2018-07-17T07:31:19.106Z,29.52
2018-07-17T07:33:48.230Z,30.53
2018-07-17T07:36:17.354Z,32.11
2018-07-17T07:38:46.818Z,31.98
2018-07-17T07:41:15.915Z,33.19
2018-07-17T07:43:45.022Z,33.60
2018-07-17T07:46:14.141Z,32.38
2018-07-17T07:48:44.438Z,32.25
2018-07-17T07:51:13.762Z,35.36
2018-07-17T07:53:43.059Z,33.05
2018-07-17T07:56:11.791Z,30.00
2018-07-17T07:58:40.972Z,30.44
2018-07-17T08:01:10.258Z,29.48
2018-07-17T08:03:39.566Z,29.02
2018-07-17T08:06:08.234Z,29.46
2018-07-17T08:08:37.827Z,29.11
2018-07-17T08:11:06.983Z,28.15
2018-07-17T08:13:36.098Z,27.19
2018-07-17T08:16:05.174Z,26.40
2018-07-17T08:18:34.673Z,24.61
2018-07-17T08:21:03.772Z,24.88
2018-07-17T08:23:32.830Z,24.66
2018-07-17T08:26:02.339Z,24.25
2018-07-17T08:28:31.451Z,23.56
2018-07-17T08:31:00.920Z,24.82
2018-07-17T08:33:30.251Z,26.82
2018-07-17T08:35:59.354Z,23.83
2018-07-17T08:38:28.490Z,24.14
2018-07-17T08:40:57.562Z,24.33
2018-07-17T08:43:26.704Z,23.29
2018-07-17T08:45:56.003Z,21.71
2018-07-17T08:48:25.142Z,22.01
2018-07-17T08:50:54.215Z,21.94
2018-07-17T08:53:23.310Z,23.29
2018-07-17T08:55:52.435Z,22.58
2018-07-17T08:58:21.538Z,22.23
2018-07-17T09:00:51.118Z,21.03
2018-07-17T09:03:20.710Z,21.28
2018-07-17T09:05:49.826Z,22.04
2018-07-17T09:08:18.872Z,23.34
2018-07-17T09:10:48.142Z,21.50
2018-07-17T09:13:17.235Z,22.85
2018-07-17T09:15:46.352Z,22.49
2018-07-17T09:18:15.499Z,23.73
2018-07-17T09:20:44.634Z,24.49
2018-07-17T09:23:13.779Z,23.05
2018-07-17T09:25:42.975Z,21.50
2018-07-17T09:28:12.084Z,22.97
2018-07-17T09:30:46.340Z,21.01
2018-07-17T09:33:16.715Z,21.86
2018-07-17T09:35:45.802Z,20.62
2018-07-17T09:38:14.934Z,19.19
2018-07-17T09:40:44.058Z,19.45
2018-07-17T09:43:13.138Z,18.66
2018-07-17T09:45:42.319Z,17.92
2018-07-17T09:48:11.754Z,19.08
2018-07-17T09:50:41.138Z,22.14
2018-07-17T09:53:10.842Z,20.62
2018-07-17T09:55:40.214Z,21.93
2018-07-17T09:58:09.519Z,20.20
2018-07-17T10:00:44.414Z,18.39
2018-07-17T10:03:13.658Z,18.66
2018-07-17T10:05:43.083Z,18.28
2018-07-17T10:08:12.201Z,20.43
2018-07-17T10:10:41.379Z,21.42
2018-07-17T10:13:10.890Z,16.78
2018-07-17T10:15:40.016Z,16.54
2018-07-17T10:18:09.175Z,17.61
2018-07-17T10:20:38.298Z,18.36
2018-07-17T10:23:07.374Z,19.89
2018-07-17T10:25:36.675Z,20.97
2018-07-17T10:28:05.847Z,19.60
2018-07-17T10:30:34.906Z,18.11
2018-07-17T10:33:04.027Z,18.21
2018-07-17T10:35:33.214Z,16.50
2018-07-17T10:38:03.171Z,16.99
2018-07-17T10:40:32.980Z,15.14
2018-07-17T10:43:02.330Z,14.60
2018-07-17T10:45:32.010Z,15.69
2018-07-17T10:48:01.151Z,14.16
2018-07-17T10:50:30.710Z,14.69
2018-07-17T10:53:00.630Z,19.18
2018-07-17T10:55:29.866Z,22.24
2018-07-17T10:57:58.962Z,24.70
2018-07-17T11:00:28.093Z,25.57
2018-07-17T11:02:57.261Z,27.52
2018-07-17T11:05:26.515Z,28.67
2018-07-17T11:07:57.499Z,29.97
2018-07-17T11:10:26.527Z,29.98
2018-07-17T11:12:56.055Z,30.71
2018-07-17T11:15:25.787Z,31.17
2018-07-17T11:17:54.864Z,32.59
2018-07-17T11:20:23.986Z,32.18
2018-07-17T11:22:53.311Z,31.01
2018-07-17T11:25:22.398Z,31.57
2018-07-17T11:27:51.535Z,32.66
2018-07-17T11:30:20.646Z,33.79
2018-07-17T11:32:49.826Z,28.48
2018-07-17T11:35:19.590Z,25.57
2018-07-17T11:37:48.703Z,26.44
2018-07-17T11:40:17.827Z,27.77
2018-07-17T11:42:47.003Z,22.95
2018-07-17T11:45:16.830Z,18.81
2018-07-17T11:47:45.934Z,18.50
2018-07-17T11:50:15.054Z,16.17
2018-07-17T11:52:44.166Z,14.59
2018-07-17T11:55:13.294Z,14.83
2018-07-17T11:57:42.828Z,14.43
2018-07-17T12:00:11.949Z,12.68
2018-07-17T12:02:41.042Z,13.32
2018-07-17T12:05:09.787Z,14.82
2018-07-17T12:07:38.991Z,13.03
2018-07-17T12:10:08.163Z,18.00
2018-07-17T12:12:37.863Z,19.99
2018-07-17T12:15:07.398Z,21.28
2018-07-17T12:17:36.644Z,22.81
2018-07-17T12:20:06.319Z,25.32
2018-07-17T12:22:35.959Z,26.36
2018-07-17T12:25:05.124Z,20.43
2018-07-17T12:27:34.355Z,16.63
2018-07-17T12:30:03.629Z,19.26
2018-07-17T12:32:32.828Z,23.51
2018-07-17T12:35:02.344Z,22.85
2018-07-17T12:37:32.082Z,25.60
2018-07-17T12:40:01.880Z,26.52
2018-07-17T12:42:31.013Z,24.09
2018-07-17T12:45:00.183Z,22.97
2018-07-17T12:47:29.277Z,20.20
2018-07-17T12:49:58.181Z,19.07
2018-07-17T12:52:27.283Z,17.71
2018-07-17T12:54:56.375Z,17.82
2018-07-17T12:57:25.530Z,16.39
2018-07-17T12:59:54.673Z,16.19
2018-07-17T13:02:23.792Z,15.94
2018-07-17T13:04:53.660Z,15.79
2018-07-17T13:07:22.934Z,14.87
2018-07-17T13:09:52.032Z,17.61
2018-07-17T13:12:21.188Z,17.06
2018-07-17T13:14:50.306Z,19.98
2018-07-17T13:17:19.435Z,21.68
2018-07-17T13:19:48.598Z,24.92
2018-07-17T13:22:17.719Z,24.96
2018-07-17T13:24:46.868Z,26.02
2018-07-17T13:27:16.080Z,23.67
2018-07-17T13:29:45.207Z,24.19
2018-07-17T13:32:14.351Z,25.03
2018-07-17T13:34:43.622Z,25.86
2018-07-17T13:37:12.747Z,26.67
2018-07-17T13:39:41.860Z,27.23
2018-07-17T13:42:11.011Z,26.27
2018-07-17T13:44:40.117Z,26.68
2018-07-17T13:47:09.200Z,26.60
2018-07-17T13:49:39.024Z,27.77
2018-07-17T13:52:08.141Z,29.61
2018-07-17T13:54:38.019Z,29.11
2018-07-17T13:57:07.764Z,30.28
2018-07-17T13:59:38.265Z,31.66
2018-07-17T14:02:07.832Z,33.81
2018-07-17T14:04:38.438Z,36.73
2018-07-17T14:07:08.558Z,55.86
2018-07-17T14:09:38.302Z,56.86
2018-07-17T14:12:07.992Z,66.95
2018-07-17T14:14:37.478Z,68.92
2018-07-17T14:17:06.661Z,70.94
2018-07-17T14:19:35.863Z,72.62
2018-07-17T14:22:05.371Z,59.29
2018-07-17T14:24:34.882Z,60.52
2018-07-17T14:27:03.635Z,72.16
2018-07-17T14:29:33.680Z,68.87
2018-07-17T14:32:02.906Z,64.08
2018-07-17T14:34:32.081Z,47.28
2018-07-17T14:37:01.615Z,46.24
2018-07-17T14:39:30.823Z,40.50
2018-07-17T14:42:01.207Z,44.70
2018-07-17T14:44:30.714Z,50.87
2018-07-17T14:47:00.048Z,39.72
2018-07-17T14:49:30.511Z,46.23
2018-07-17T14:51:59.871Z,46.10
2018-07-17T14:54:29.195Z,46.61
2018-07-17T14:56:58.599Z,44.08
2018-07-17T14:59:27.918Z,42.98
2018-07-17T15:01:56.990Z,42.54
2018-07-17T15:04:26.611Z,40.75
2018-07-17T15:06:55.965Z,42.46
2018-07-17T15:09:24.684Z,44.51
2018-07-17T15:11:53.834Z,39.88
2018-07-17T15:14:23.522Z,39.34
2018-07-17T15:16:52.730Z,36.92
2018-07-17T15:19:22.354Z,38.10
2018-07-17T15:21:51.585Z,35.36
2018-07-17T15:24:21.355Z,32.91
2018-07-17T15:26:51.624Z,34.42
2018-07-17T15:29:20.740Z,34.04
2018-07-17T15:31:50.133Z,26.16
2018-07-17T15:34:19.246Z,23.83
2018-07-17T15:36:48.615Z,25.22
2018-07-17T15:39:18.386Z,27.47
2018-07-17T15:41:48.273Z,27.58
2018-07-17T15:44:17.815Z,27.38
2018-07-17T15:46:47.305Z,27.96
2018-07-17T15:49:17.087Z,28.91
2018-07-17T15:51:46.910Z,27.66
2018-07-17T15:54:17.138Z,23.05
2018-07-17T15:56:46.298Z,24.43
2018-07-17T15:59:16.194Z,21.44
2018-07-17T16:01:46.846Z,20.40
2018-07-17T16:04:16.600Z,20.34
2018-07-17T16:06:46.129Z,24.10
2018-07-17T16:09:15.627Z,25.50
2018-07-17T16:11:44.748Z,27.56
2018-07-17T16:14:14.109Z,28.97
2018-07-17T16:16:42.934Z,28.05
2018-07-17T16:19:12.068Z,30.36
2018-07-17T16:21:41.187Z,31.52
2018-07-17T16:24:11.052Z,33.14
2018-07-17T16:26:40.215Z,33.35
2018-07-17T16:29:09.247Z,30.11
2018-07-17T16:31:38.388Z,30.11
2018-07-17T16:34:07.595Z,29.58
2018-07-17T16:36:36.815Z,28.90
2018-07-17T16:39:08.276Z,28.86
2018-07-17T16:41:37.437Z,29.27
2018-07-17T16:44:06.546Z,31.72
2018-07-17T16:46:35.642Z,32.30
2018-07-17T16:49:04.807Z,32.98
2018-07-17T16:51:33.959Z,33.15
2018-07-17T16:54:03.533Z,34.36
2018-07-17T16:56:32.554Z,36.02
2018-07-17T16:59:01.670Z,37.53
2018-07-17T17:01:30.763Z,38.75
2018-07-17T17:03:59.871Z,38.53
2018-07-17T17:06:28.963Z,39.35
2018-07-17T17:08:58.883Z,39.52
2018-07-17T17:11:28.067Z,38.98
2018-07-17T17:13:58.354Z,39.24
2018-07-17T17:16:27.703Z,38.78
2018-07-17T17:18:56.799Z,38.96
2018-07-17T17:21:25.945Z,40.29
2018-07-17T17:23:55.167Z,40.42
2018-07-17T17:26:24.183Z,40.95
2018-07-17T17:28:53.286Z,39.94
2018-07-17T17:31:22.414Z,40.03
2018-07-17T17:33:51.510Z,40.42
2018-07-17T17:36:21.369Z,39.82
2018-07-17T17:38:50.469Z,41.05
2018-07-17T17:41:19.534Z,41.06
2018-07-17T17:43:49.466Z,43.59
2018-07-17T17:46:18.631Z,47.02
2018-07-17T17:48:48.190Z,45.54
2018-07-17T17:51:17.354Z,45.77
2018-07-17T17:53:46.446Z,44.12
2018-07-17T17:56:16.715Z,44.81
2018-07-17T17:58:46.593Z,44.67
2018-07-17T18:01:16.166Z,44.21
2018-07-17T18:03:45.295Z,43.90
2018-07-17T18:06:14.531Z,43.76
2018-07-17T18:08:45.047Z,44.85
2018-07-17T18:11:14.920Z,43.81
2018-07-17T18:13:45.300Z,45.66
2018-07-17T18:16:14.487Z,44.53
2018-07-17T18:18:43.692Z,44.80
2018-07-17T18:21:13.199Z,45.06
2018-07-17T18:23:42.368Z,45.41
2018-07-17T18:26:11.537Z,45.79
2018-07-17T18:28:40.622Z,46.51
2018-07-17T18:31:09.829Z,47.01
2018-07-17T18:33:39.006Z,47.81
2018-07-17T18:36:08.164Z,47.52
2018-07-17T18:38:37.431Z,48.27
2018-07-17T18:41:06.532Z,48.84
2018-07-17T18:43:35.665Z,48.50
2018-07-17T18:46:04.903Z,49.51
2018-07-17T18:48:34.108Z,50.35
2018-07-17T18:51:03.238Z,50.59
2018-07-17T18:53:33.043Z,50.70
2018-07-17T18:56:02.119Z,50.05
2018-07-17T18:58:31.241Z,50.40
2018-07-17T19:01:02.063Z,50.83
2018-07-17T19:03:31.182Z,51.48
2018-07-17T19:06:00.276Z,51.21
2018-07-17T19:08:29.388Z,50.45
2018-07-17T19:10:58.518Z,51.91
2018-07-17T19:13:28.346Z,51.50
2018-07-17T19:15:58.827Z,51.85
2018-07-17T19:18:28.282Z,51.93
2018-07-17T19:20:57.527Z,52.91
2018-07-17T19:23:26.822Z,53.58
2018-07-17T19:25:56.099Z,53.25
2018-07-17T19:28:26.055Z,53.68
2018-07-17T19:30:55.310Z,54.18
2018-07-17T19:33:24.113Z,53.99
2018-07-17T19:35:54.999Z,54.52
2018-07-17T19:38:23.745Z,53.87
2018-07-17T19:40:52.858Z,54.23
2018-07-17T19:43:21.980Z,55.73
2018-07-17T19:45:51.462Z,55.42
2018-07-17T19:48:21.539Z,55.24
2018-07-17T19:50:51.930Z,56.41
2018-07-17T19:53:21.962Z,54.41
2018-07-17T19:55:50.707Z,57.06
2018-07-17T19:58:19.838Z,56.30
2018-07-17T20:00:49.334Z,54.42
2018-07-17T20:03:18.486Z,54.14
2018-07-17T20:05:47.578Z,55.41
2018-07-17T20:08:16.794Z,55.11
2018-07-17T20:10:46.878Z,56.46
2018-07-17T20:13:16.015Z,56.58
2018-07-17T20:15:45.215Z,56.35
2018-07-17T20:18:15.104Z,56.61
2018-07-17T20:20:44.586Z,58.51
2018-07-17T20:23:14.575Z,57.54
2018-07-17T20:25:43.726Z,57.60
2018-07-17T20:28:13.403Z,57.88
2018-07-17T20:30:42.495Z,58.11
2018-07-17T20:33:11.737Z,58.62
2018-07-17T20:35:40.882Z,59.35
2018-07-17T20:38:09.979Z,60.20
2018-07-17T20:40:39.088Z,59.59
2018-07-17T20:43:08.203Z,60.78
2018-07-17T20:45:38.292Z,61.12
2018-07-17T20:48:07.492Z,62.15
2018-07-17T20:50:37.043Z,63.19
2018-07-17T20:53:06.701Z,65.11
2018-07-17T20:55:35.729Z,65.16
2018-07-17T20:58:05.279Z,65.97
2018-07-17T21:00:34.658Z,63.85
2018-07-17T21:03:04.652Z,65.21
2018-07-17T21:05:33.801Z,66.55
2018-07-17T21:08:02.982Z,66.56
2018-07-17T21:10:32.198Z,66.10
2018-07-17T21:13:01.422Z,66.53
2018-07-17T21:15:31.271Z,66.87
2018-07-17T21:18:00.444Z,67.51
2018-07-17T21:20:30.363Z,67.98
2018-07-17T21:22:59.587Z,69.57
2018-07-17T21:25:28.911Z,69.78
2018-07-17T21:27:58.352Z,70.18
2018-07-17T21:30:28.266Z,69.24
2018-07-17T21:32:58.149Z,69.34
2018-07-17T21:35:27.566Z,70.39
2018-07-17T21:37:57.332Z,70.81
2018-07-17T21:40:26.890Z,71.80
2018-07-17T21:42:55.519Z,72.33
2018-07-17T21:45:25.600Z,73.25
2018-07-17T21:47:54.798Z,72.01
2018-07-17T21:50:24.296Z,71.01
2018-07-17T21:52:53.431Z,69.66
2018-07-17T21:55:22.551Z,69.69
2018-07-17T21:57:51.635Z,68.35
2018-07-17T22:00:20.738Z,68.54
2018-07-17T22:02:50.724Z,69.19
2018-07-17T22:05:19.874Z,68.42
2018-07-17T22:07:48.976Z,68.47
2018-07-17T22:10:18.047Z,69.55
2018-07-17T22:12:48.403Z,70.26
2018-07-17T22:15:17.504Z,70.02
2018-07-17T22:17:46.806Z,71.48
2018-07-17T22:20:16.006Z,70.63
2018-07-17T22:22:45.105Z,70.33
2018-07-17T22:25:14.198Z,69.99
2018-07-17T22:27:43.799Z,70.17
2018-07-17T22:30:12.907Z,70.37
2018-07-17T22:32:42.030Z,70.42
2018-07-17T22:35:11.338Z,70.59
2018-07-17T22:37:40.434Z,70.43
2018-07-17T22:40:09.552Z,69.49
2018-07-17T22:42:38.414Z,68.61
2018-07-17T22:45:07.375Z,68.73
2018-07-17T22:47:36.767Z,69.49
2018-07-17T22:50:05.875Z,70.14
2018-07-17T22:52:34.973Z,70.05
2018-07-17T22:55:04.127Z,70.34
2018-07-17T22:57:33.246Z,69.70
2018-07-17T23:00:02.363Z,70.51
2018-07-17T23:02:32.346Z,70.45
2018-07-17T23:05:02.207Z,70.80
2018-07-17T23:07:30.950Z,71.10
2018-07-17T23:10:00.080Z,72.26
2018-07-17T23:12:29.374Z,72.88
2018-07-17T23:14:58.643Z,73.90
2018-07-17T23:17:27.718Z,74.18
2018-07-17T23:19:57.863Z,74.93
2018-07-17T23:22:40.018Z,75.16
2018-07-17T23:25:09.678Z,76.57
2018-07-17T23:27:38.769Z,76.79
2018-07-17T23:30:07.894Z,77.96
2018-07-17T23:32:37.010Z,78.49
2018-07-17T23:35:06.091Z,79.35
2018-07-17T23:37:35.991Z,81.01
2018-07-17T23:40:05.163Z,80.73
2018-07-17T23:42:34.259Z,81.82
2018-07-17T23:45:04.094Z,82.82
2018-07-17T23:47:33.181Z,84.09
2018-07-17T23:50:02.287Z,84.68
2018-07-17T23:52:31.428Z,84.88
2018-07-17T23:55:01.305Z,85.84
2018-07-17T23:57:30.419Z,86.18
2018-07-17T23:59:59.591Z,87.09
